Hardeeville, South Carolina
Current Conditions -  °F | °C
As of 9:53 AM on Friday 19 Dec 2014 (Local Time) from KSAV Reporting Station
Broken Clouds Broken Clouds  
Wind Chill: 55°   Ceiling: 15000
Heat Index: 55°   Visibility: 10mi
Dew Point: 39°   Wind: 6mph
Humidity: 55%   Direction: 330°NNW
Pressure: 30.17"   Gusts: NA
Location:  32.29°N, 81.08°W
Report Text: KSAV 191453Z 33005KT 10SM FEW070 BKN150 BKN250 13/04 A3017 RMK AO2 SLP215 T01280039 51015
Loading
Personal Weather Stations






























Interactive Weather Map New forecast layout! Learn more

10-Day Weather Forecast

Advertisements
Track Severe Weather on mobile